sensor_id;sensor_type;location;lat;lon;timestamp;P1;durP1;ratioP1;P2;durP2;ratioP2
5869;SDS011;2961;47.702;9.410;2024-01-25T00:00:44;1.03;;;0.87;;
5869;SDS011;2961;47.702;9.410;2024-01-25T00:03:11;3.50;;;1.60;;
5869;SDS011;2961;47.702;9.410;2024-01-25T00:05:39;1.30;;;1.20;;
5869;SDS011;2961;47.702;9.410;2024-01-25T00:08:06;5.10;;;3.10;;
5869;SDS011;2961;47.702;9.410;2024-01-25T00:10:33;1.70;;;1.60;;
5869;SDS011;2961;47.702;9.410;2024-01-25T00:13:00;3.53;;;1.00;;
5869;SDS011;2961;47.702;9.410;2024-01-25T00:15:26;3.40;;;2.00;;
5869;SDS011;2961;47.702;9.410;2024-01-25T00:17:53;1.27;;;0.90;;
5869;SDS011;2961;47.702;9.410;2024-01-25T00:20:21;3.97;;;1.90;;
5869;SDS011;2961;47.702;9.410;2024-01-25T00:22:50;4.10;;;1.57;;
5869;SDS011;2961;47.702;9.410;2024-01-25T00:25:16;1.13;;;1.13;;
5869;SDS011;2961;47.702;9.410;2024-01-25T00:27:43;0.80;;;0.80;;
5869;SDS011;2961;47.702;9.410;2024-01-25T00:30:12;5.63;;;1.03;;
5869;SDS011;2961;47.702;9.410;2024-01-25T00:32:39;9.73;;;4.97;;
5869;SDS011;2961;47.702;9.410;2024-01-25T00:35:06;2.50;;;1.73;;
5869;SDS011;2961;47.702;9.410;2024-01-25T00:37:35;1.57;;;0.80;;
5869;SDS011;2961;47.702;9.410;2024-01-25T00:40:04;4.77;;;2.30;;
5869;SDS011;2961;47.702;9.410;2024-01-25T00:42:31;1.50;;;1.20;;
5869;SDS011;2961;47.702;9.410;2024-01-25T00:45:04;4.50;;;3.30;;
5869;SDS011;2961;47.702;9.410;2024-01-25T00:47:32;1.10;;;1.00;;
5869;SDS011;2961;47.702;9.410;2024-01-25T00:49:59;0.87;;;0.60;;
5869;SDS011;2961;47.702;9.410;2024-01-25T00:52:26;2.10;;;1.60;;
5869;SDS011;2961;47.702;9.410;2024-01-25T00:54:53;7.67;;;2.00;;
5869;SDS011;2961;47.702;9.410;2024-01-25T00:57:22;2.90;;;2.40;;
5869;SDS011;2961;47.702;9.410;2024-01-25T00:59:49;2.40;;;1.60;;
5869;SDS011;2961;47.702;9.410;2024-01-25T01:02:17;1.43;;;1.33;;
5869;SDS011;2961;47.702;9.410;2024-01-25T01:04:45;2.17;;;1.17;;
5869;SDS011;2961;47.702;9.410;2024-01-25T01:07:13;2.30;;;2.10;;
5869;SDS011;2961;47.702;9.410;2024-01-25T01:09:40;3.80;;;2.00;;
5869;SDS011;2961;47.702;9.410;2024-01-25T01:12:06;4.00;;;1.60;;
5869;SDS011;2961;47.702;9.410;2024-01-25T01:14:35;5.77;;;1.70;;
5869;SDS011;2961;47.702;9.410;2024-01-25T01:17:02;2.63;;;1.53;;
5869;SDS011;2961;47.702;9.410;2024-01-25T01:19:29;6.63;;;2.87;;
5869;SDS011;2961;47.702;9.410;2024-01-25T01:21:56;7.00;;;2.27;;
5869;SDS011;2961;47.702;9.410;2024-01-25T01:24:23;1.87;;;1.73;;
5869;SDS011;2961;47.702;9.410;2024-01-25T01:26:49;2.87;;;1.13;;
5869;SDS011;2961;47.702;9.410;2024-01-25T01:29:16;2.17;;;1.70;;
5869;SDS011;2961;47.702;9.410;2024-01-25T01:31:45;1.53;;;1.43;;
5869;SDS011;2961;47.702;9.410;2024-01-25T01:34:12;1.90;;;1.40;;
5869;SDS011;2961;47.702;9.410;2024-01-25T01:36:39;1.80;;;1.10;;
5869;SDS011;2961;47.702;9.410;2024-01-25T01:39:06;4.53;;;1.70;;
5869;SDS011;2961;47.702;9.410;2024-01-25T01:41:32;6.77;;;1.57;;
5869;SDS011;2961;47.702;9.410;2024-01-25T01:43:59;6.60;;;2.77;;
5869;SDS011;2961;47.702;9.410;2024-01-25T01:46:29;1.60;;;1.50;;
5869;SDS011;2961;47.702;9.410;2024-01-25T01:49:01;2.73;;;1.63;;
5869;SDS011;2961;47.702;9.410;2024-01-25T01:51:28;2.63;;;1.37;;
5869;SDS011;2961;47.702;9.410;2024-01-25T01:53:57;4.67;;;2.40;;
5869;SDS011;2961;47.702;9.410;2024-01-25T01:56:26;3.20;;;1.43;;
5869;SDS011;2961;47.702;9.410;2024-01-25T01:58:53;2.20;;;1.40;;
5869;SDS011;2961;47.702;9.410;2024-01-25T02:01:22;8.90;;;3.00;;
5869;SDS011;2961;47.702;9.410;2024-01-25T02:03:50;6.93;;;2.90;;
5869;SDS011;2961;47.702;9.410;2024-01-25T02:06:18;3.90;;;1.47;;
5869;SDS011;2961;47.702;9.410;2024-01-25T02:08:45;4.60;;;2.30;;
5869;SDS011;2961;47.702;9.410;2024-01-25T02:11:13;2.73;;;1.87;;
5869;SDS011;2961;47.702;9.410;2024-01-25T02:13:40;1.97;;;1.00;;
5869;SDS011;2961;47.702;9.410;2024-01-25T02:16:07;5.17;;;1.97;;
5869;SDS011;2961;47.702;9.410;2024-01-25T02:18:34;5.70;;;2.20;;
5869;SDS011;2961;47.702;9.410;2024-01-25T02:21:01;6.63;;;2.23;;
5869;SDS011;2961;47.702;9.410;2024-01-25T02:23:30;6.80;;;2.67;;
5869;SDS011;2961;47.702;9.410;2024-01-25T02:25:57;4.10;;;1.40;;
5869;SDS011;2961;47.702;9.410;2024-01-25T02:28:23;8.43;;;3.70;;
5869;SDS011;2961;47.702;9.410;2024-01-25T02:30:50;9.23;;;4.27;;
5869;SDS011;2961;47.702;9.410;2024-01-25T02:33:17;4.13;;;1.47;;
5869;SDS011;2961;47.702;9.410;2024-01-25T02:35:44;4.00;;;2.20;;
5869;SDS011;2961;47.702;9.410;2024-01-25T02:38:11;3.63;;;1.40;;
5869;SDS011;2961;47.702;9.410;2024-01-25T02:40:39;3.70;;;1.63;;
5869;SDS011;2961;47.702;9.410;2024-01-25T02:43:06;1.70;;;1.10;;
5869;SDS011;2961;47.702;9.410;2024-01-25T02:45:33;4.07;;;1.50;;
5869;SDS011;2961;47.702;9.410;2024-01-25T02:47:59;2.60;;;2.00;;
5869;SDS011;2961;47.702;9.410;2024-01-25T02:50:27;4.17;;;1.97;;
5869;SDS011;2961;47.702;9.410;2024-01-25T02:52:54;5.87;;;1.67;;
5869;SDS011;2961;47.702;9.410;2024-01-25T02:55:21;3.40;;;1.80;;
5869;SDS011;2961;47.702;9.410;2024-01-25T02:57:49;7.27;;;1.60;;
5869;SDS011;2961;47.702;9.410;2024-01-25T03:00:16;2.50;;;1.20;;
5869;SDS011;2961;47.702;9.410;2024-01-25T03:02:43;4.83;;;1.40;;
5869;SDS011;2961;47.702;9.410;2024-01-25T03:05:09;4.37;;;1.60;;
5869;SDS011;2961;47.702;9.410;2024-01-25T03:07:36;12.00;;;2.93;;
5869;SDS011;2961;47.702;9.410;2024-01-25T03:10:03;8.83;;;1.80;;
5869;SDS011;2961;47.702;9.410;2024-01-25T03:12:31;4.37;;;1.40;;
5869;SDS011;2961;47.702;9.410;2024-01-25T03:14:59;2.63;;;1.00;;
5869;SDS011;2961;47.702;9.410;2024-01-25T03:17:26;3.47;;;1.50;;
5869;SDS011;2961;47.702;9.410;2024-01-25T03:19:53;1.83;;;1.50;;
5869;SDS011;2961;47.702;9.410;2024-01-25T03:22:19;3.77;;;2.00;;
5869;SDS011;2961;47.702;9.410;2024-01-25T03:24:47;7.03;;;1.50;;
5869;SDS011;2961;47.702;9.410;2024-01-25T03:27:14;8.33;;;2.50;;
5869;SDS011;2961;47.702;9.410;2024-01-25T03:29:41;4.70;;;2.33;;
5869;SDS011;2961;47.702;9.410;2024-01-25T03:32:09;6.67;;;1.80;;
5869;SDS011;2961;47.702;9.410;2024-01-25T03:34:37;1.87;;;1.70;;
5869;SDS011;2961;47.702;9.410;2024-01-25T03:37:04;4.33;;;1.50;;
5869;SDS011;2961;47.702;9.410;2024-01-25T03:39:30;8.13;;;2.17;;
5869;SDS011;2961;47.702;9.410;2024-01-25T03:41:57;4.03;;;1.70;;
5869;SDS011;2961;47.702;9.410;2024-01-25T03:44:24;3.07;;;2.13;;
5869;SDS011;2961;47.702;9.410;2024-01-25T03:46:51;3.90;;;2.43;;
5869;SDS011;2961;47.702;9.410;2024-01-25T03:49:19;6.20;;;2.47;;
5869;SDS011;2961;47.702;9.410;2024-01-25T03:51:48;1.83;;;1.73;;
5869;SDS011;2961;47.702;9.410;2024-01-25T03:54:15;5.60;;;2.57;;
5869;SDS011;2961;47.702;9.410;2024-01-25T03:56:42;8.93;;;2.60;;
5869;SDS011;2961;47.702;9.410;2024-01-25T03:59:08;1.80;;;1.70;;
5869;SDS011;2961;47.702;9.410;2024-01-25T04:01:41;5.23;;;1.57;;
5869;SDS011;2961;47.702;9.410;2024-01-25T04:04:08;3.90;;;2.40;;
5869;SDS011;2961;47.702;9.410;2024-01-25T04:06:38;8.33;;;3.40;;
5869;SDS011;2961;47.702;9.410;2024-01-25T04:09:05;8.20;;;2.90;;
5869;SDS011;2961;47.702;9.410;2024-01-25T04:11:31;3.70;;;2.40;;
5869;SDS011;2961;47.702;9.410;2024-01-25T04:13:58;7.23;;;2.17;;
5869;SDS011;2961;47.702;9.410;2024-01-25T04:16:25;4.17;;;2.17;;
5869;SDS011;2961;47.702;9.410;2024-01-25T04:18:52;3.00;;;1.57;;
5869;SDS011;2961;47.702;9.410;2024-01-25T04:21:19;6.20;;;2.40;;
5869;SDS011;2961;47.702;9.410;2024-01-25T04:23:47;3.37;;;2.40;;
5869;SDS011;2961;47.702;9.410;2024-01-25T04:26:14;6.03;;;1.70;;
5869;SDS011;2961;47.702;9.410;2024-01-25T04:28:41;1.80;;;1.67;;
5869;SDS011;2961;47.702;9.410;2024-01-25T04:31:08;2.20;;;1.77;;
5869;SDS011;2961;47.702;9.410;2024-01-25T04:33:35;7.70;;;2.90;;
5869;SDS011;2961;47.702;9.410;2024-01-25T04:36:02;10.73;;;5.10;;
5869;SDS011;2961;47.702;9.410;2024-01-25T04:38:29;9.83;;;3.33;;
5869;SDS011;2961;47.702;9.410;2024-01-25T04:41:16;7.93;;;3.70;;
5869;SDS011;2961;47.702;9.410;2024-01-25T04:43:42;4.70;;;3.40;;
5869;SDS011;2961;47.702;9.410;2024-01-25T04:46:09;2.83;;;2.50;;
5869;SDS011;2961;47.702;9.410;2024-01-25T04:48:36;6.67;;;2.90;;
5869;SDS011;2961;47.702;9.410;2024-01-25T04:51:03;4.40;;;2.80;;
5869;SDS011;2961;47.702;9.410;2024-01-25T04:53:30;8.90;;;4.57;;
5869;SDS011;2961;47.702;9.410;2024-01-25T04:55:58;7.50;;;3.67;;
5869;SDS011;2961;47.702;9.410;2024-01-25T04:58:26;6.27;;;3.80;;
5869;SDS011;2961;47.702;9.410;2024-01-25T05:00:52;10.83;;;3.17;;
5869;SDS011;2961;47.702;9.410;2024-01-25T05:03:20;5.60;;;3.20;;
5869;SDS011;2961;47.702;9.410;2024-01-25T05:05:47;10.33;;;6.70;;
5869;SDS011;2961;47.702;9.410;2024-01-25T05:08:14;10.33;;;4.73;;
5869;SDS011;2961;47.702;9.410;2024-01-25T05:10:40;7.53;;;4.23;;
5869;SDS011;2961;47.702;9.410;2024-01-25T05:13:08;10.63;;;4.47;;
5869;SDS011;2961;47.702;9.410;2024-01-25T05:15:36;3.97;;;3.20;;
5869;SDS011;2961;47.702;9.410;2024-01-25T05:18:03;11.80;;;4.10;;
5869;SDS011;2961;47.702;9.410;2024-01-25T05:20:30;9.30;;;4.60;;
5869;SDS011;2961;47.702;9.410;2024-01-25T05:22:59;14.53;;;5.33;;
5869;SDS011;2961;47.702;9.410;2024-01-25T05:25:25;7.50;;;3.83;;
5869;SDS011;2961;47.702;9.410;2024-01-25T05:27:52;13.83;;;3.80;;
5869;SDS011;2961;47.702;9.410;2024-01-25T05:30:19;11.63;;;6.20;;
5869;SDS011;2961;47.702;9.410;2024-01-25T05:32:47;12.50;;;4.50;;
5869;SDS011;2961;47.702;9.410;2024-01-25T05:35:14;6.03;;;3.80;;
5869;SDS011;2961;47.702;9.410;2024-01-25T05:37:41;15.30;;;5.50;;
5869;SDS011;2961;47.702;9.410;2024-01-25T05:40:09;10.57;;;5.03;;
5869;SDS011;2961;47.702;9.410;2024-01-25T05:42:36;17.43;;;5.00;;
5869;SDS011;2961;47.702;9.410;2024-01-25T05:45:03;7.80;;;5.03;;
5869;SDS011;2961;47.702;9.410;2024-01-25T05:47:30;11.23;;;4.73;;
5869;SDS011;2961;47.702;9.410;2024-01-25T05:49:58;18.30;;;9.00;;
5869;SDS011;2961;47.702;9.410;2024-01-25T05:52:25;20.90;;;9.00;;
5869;SDS011;2961;47.702;9.410;2024-01-25T05:54:52;14.07;;;5.77;;
5869;SDS011;2961;47.702;9.410;2024-01-25T05:57:19;30.40;;;16.00;;
5869;SDS011;2961;47.702;9.410;2024-01-25T05:59:46;20.63;;;12.70;;
5869;SDS011;2961;47.702;9.410;2024-01-25T06:02:12;13.23;;;7.77;;
5869;SDS011;2961;47.702;9.410;2024-01-25T06:04:39;12.97;;;7.47;;
5869;SDS011;2961;47.702;9.410;2024-01-25T06:07:07;13.77;;;6.90;;
5869;SDS011;2961;47.702;9.410;2024-01-25T06:09:35;10.27;;;5.13;;
5869;SDS011;2961;47.702;9.410;2024-01-25T06:12:02;13.87;;;5.00;;
5869;SDS011;2961;47.702;9.410;2024-01-25T06:14:29;20.02;;;9.30;;
5869;SDS011;2961;47.702;9.410;2024-01-25T06:16:56;21.70;;;9.30;;
5869;SDS011;2961;47.702;9.410;2024-01-25T06:19:23;8.73;;;3.90;;
5869;SDS011;2961;47.702;9.410;2024-01-25T06:21:50;10.13;;;3.90;;
5869;SDS011;2961;47.702;9.410;2024-01-25T06:24:18;10.95;;;4.82;;
5869;SDS011;2961;47.702;9.410;2024-01-25T06:26:45;12.17;;;3.50;;
5869;SDS011;2961;47.702;9.410;2024-01-25T06:31:57;7.80;;;2.40;;
5869;SDS011;2961;47.702;9.410;2024-01-25T06:34:24;6.13;;;3.28;;
5869;SDS011;2961;47.702;9.410;2024-01-25T06:36:50;11.13;;;3.37;;
5869;SDS011;2961;47.702;9.410;2024-01-25T06:39:19;8.07;;;2.80;;
5869;SDS011;2961;47.702;9.410;2024-01-25T06:41:45;3.93;;;3.43;;
5869;SDS011;2961;47.702;9.410;2024-01-25T06:44:12;11.93;;;3.23;;
5869;SDS011;2961;47.702;9.410;2024-01-25T06:46:39;6.00;;;2.97;;
5869;SDS011;2961;47.702;9.410;2024-01-25T06:49:05;15.03;;;3.20;;
5869;SDS011;2961;47.702;9.410;2024-01-25T06:51:32;6.60;;;3.07;;
5869;SDS011;2961;47.702;9.410;2024-01-25T06:53:59;8.20;;;3.00;;
5869;SDS011;2961;47.702;9.410;2024-01-25T06:56:27;9.20;;;3.10;;
5869;SDS011;2961;47.702;9.410;2024-01-25T06:58:54;10.27;;;3.20;;
5869;SDS011;2961;47.702;9.410;2024-01-25T07:01:21;7.07;;;2.60;;
5869;SDS011;2961;47.702;9.410;2024-01-25T07:03:48;9.73;;;3.20;;
5869;SDS011;2961;47.702;9.410;2024-01-25T07:06:16;6.87;;;2.90;;
5869;SDS011;2961;47.702;9.410;2024-01-25T07:08:43;3.80;;;2.80;;
5869;SDS011;2961;47.702;9.410;2024-01-25T07:11:10;9.90;;;2.57;;
5869;SDS011;2961;47.702;9.410;2024-01-25T07:13:38;5.70;;;3.50;;
5869;SDS011;2961;47.702;9.410;2024-01-25T07:16:06;5.07;;;2.90;;
5869;SDS011;2961;47.702;9.410;2024-01-25T07:18:33;3.70;;;2.97;;
5869;SDS011;2961;47.702;9.410;2024-01-25T07:21:00;7.43;;;2.80;;
5869;SDS011;2961;47.702;9.410;2024-01-25T07:23:28;3.53;;;2.10;;
5869;SDS011;2961;47.702;9.410;2024-01-25T07:25:56;5.33;;;2.70;;
5869;SDS011;2961;47.702;9.410;2024-01-25T07:28:22;9.13;;;2.83;;
5869;SDS011;2961;47.702;9.410;2024-01-25T07:30:50;2.47;;;2.20;;
5869;SDS011;2961;47.702;9.410;2024-01-25T07:33:17;4.93;;;2.20;;
5869;SDS011;2961;47.702;9.410;2024-01-25T07:35:44;3.90;;;2.37;;
5869;SDS011;2961;47.702;9.410;2024-01-25T07:38:11;9.10;;;2.90;;
5869;SDS011;2961;47.702;9.410;2024-01-25T07:40:38;3.90;;;2.20;;
5869;SDS011;2961;47.702;9.410;2024-01-25T07:43:05;5.67;;;2.47;;
5869;SDS011;2961;47.702;9.410;2024-01-25T07:45:32;2.80;;;2.33;;
5869;SDS011;2961;47.702;9.410;2024-01-25T07:48:00;5.50;;;3.00;;
5869;SDS011;2961;47.702;9.410;2024-01-25T07:50:28;3.13;;;2.30;;
5869;SDS011;2961;47.702;9.410;2024-01-25T07:52:55;4.50;;;2.73;;
5869;SDS011;2961;47.702;9.410;2024-01-25T07:55:21;3.67;;;2.23;;
5869;SDS011;2961;47.702;9.410;2024-01-25T07:57:48;4.63;;;1.93;;
5869;SDS011;2961;47.702;9.410;2024-01-25T08:00:15;3.23;;;2.30;;
5869;SDS011;2961;47.702;9.410;2024-01-25T08:02:42;2.80;;;2.60;;
5869;SDS011;2961;47.702;9.410;2024-01-25T08:05:11;7.47;;;2.47;;
5869;SDS011;2961;47.702;9.410;2024-01-25T08:07:38;5.20;;;2.50;;
5869;SDS011;2961;47.702;9.410;2024-01-25T08:10:05;5.27;;;2.70;;
5869;SDS011;2961;47.702;9.410;2024-01-25T08:12:33;3.03;;;2.33;;
5869;SDS011;2961;47.702;9.410;2024-01-25T08:15:00;7.57;;;2.70;;
5869;SDS011;2961;47.702;9.410;2024-01-25T08:17:27;5.77;;;2.70;;
5869;SDS011;2961;47.702;9.410;2024-01-25T08:19:54;3.27;;;2.60;;
5869;SDS011;2961;47.702;9.410;2024-01-25T08:22:22;3.00;;;2.70;;
5869;SDS011;2961;47.702;9.410;2024-01-25T08:24:49;2.63;;;2.10;;
5869;SDS011;2961;47.702;9.410;2024-01-25T08:27:16;2.20;;;2.03;;
5869;SDS011;2961;47.702;9.410;2024-01-25T08:29:43;4.97;;;2.67;;
5869;SDS011;2961;47.702;9.410;2024-01-25T08:32:11;11.27;;;3.33;;
5869;SDS011;2961;47.702;9.410;2024-01-25T08:34:37;12.90;;;3.47;;
5869;SDS011;2961;47.702;9.410;2024-01-25T08:37:04;8.40;;;3.97;;
5869;SDS011;2961;47.702;9.410;2024-01-25T08:39:32;8.50;;;2.70;;
5869;SDS011;2961;47.702;9.410;2024-01-25T08:41:59;5.93;;;3.60;;
5869;SDS011;2961;47.702;9.410;2024-01-25T08:44:28;2.63;;;2.43;;
5869;SDS011;2961;47.702;9.410;2024-01-25T08:46:55;3.70;;;2.47;;
5869;SDS011;2961;47.702;9.410;2024-01-25T08:49:22;6.13;;;2.70;;
5869;SDS011;2961;47.702;9.410;2024-01-25T08:51:48;5.70;;;2.70;;
5869;SDS011;2961;47.702;9.410;2024-01-25T08:54:15;6.60;;;2.87;;
5869;SDS011;2961;47.702;9.410;2024-01-25T08:56:43;8.10;;;3.57;;
5869;SDS011;2961;47.702;9.410;2024-01-25T08:59:10;3.47;;;3.27;;
5869;SDS011;2961;47.702;9.410;2024-01-25T09:01:37;4.20;;;3.80;;
5869;SDS011;2961;47.702;9.410;2024-01-25T09:04:04;5.23;;;4.63;;
5869;SDS011;2961;47.702;9.410;2024-01-25T09:06:31;14.37;;;5.20;;
5869;SDS011;2961;47.702;9.410;2024-01-25T09:08:57;8.77;;;5.00;;
5869;SDS011;2961;47.702;9.410;2024-01-25T09:11:24;13.60;;;5.70;;
5869;SDS011;2961;47.702;9.410;2024-01-25T09:13:52;20.23;;;9.10;;
5869;SDS011;2961;47.702;9.410;2024-01-25T09:16:19;25.33;;;8.33;;
5869;SDS011;2961;47.702;9.410;2024-01-25T09:18:47;13.50;;;7.63;;
5869;SDS011;2961;47.702;9.410;2024-01-25T09:21:15;25.03;;;6.83;;
5869;SDS011;2961;47.702;9.410;2024-01-25T09:23:41;18.30;;;9.80;;
5869;SDS011;2961;47.702;9.410;2024-01-25T09:26:08;18.20;;;8.60;;
5869;SDS011;2961;47.702;9.410;2024-01-25T09:28:35;11.67;;;7.40;;
5869;SDS011;2961;47.702;9.410;2024-01-25T09:31:03;16.80;;;7.50;;
5869;SDS011;2961;47.702;9.410;2024-01-25T09:33:30;10.00;;;5.87;;
5869;SDS011;2961;47.702;9.410;2024-01-25T09:35:58;15.10;;;5.97;;
5869;SDS011;2961;47.702;9.410;2024-01-25T09:38:25;13.30;;;6.17;;
5869;SDS011;2961;47.702;9.410;2024-01-25T09:40:52;12.57;;;5.07;;
5869;SDS011;2961;47.702;9.410;2024-01-25T09:43:19;11.17;;;5.30;;
5869;SDS011;2961;47.702;9.410;2024-01-25T09:45:47;11.43;;;5.30;;
5869;SDS011;2961;47.702;9.410;2024-01-25T09:48:20;15.13;;;6.00;;
5869;SDS011;2961;47.702;9.410;2024-01-25T09:50:47;9.03;;;5.37;;
5869;SDS011;2961;47.702;9.410;2024-01-25T09:53:15;10.77;;;6.30;;
5869;SDS011;2961;47.702;9.410;2024-01-25T09:55:47;11.00;;;6.50;;
5869;SDS011;2961;47.702;9.410;2024-01-25T09:58:21;15.33;;;5.90;;
5869;SDS011;2961;47.702;9.410;2024-01-25T10:00:48;12.23;;;6.73;;
5869;SDS011;2961;47.702;9.410;2024-01-25T10:03:15;10.87;;;6.43;;
5869;SDS011;2961;47.702;9.410;2024-01-25T10:05:43;13.60;;;5.70;;
5869;SDS011;2961;47.702;9.410;2024-01-25T10:08:12;12.57;;;5.37;;
5869;SDS011;2961;47.702;9.410;2024-01-25T10:10:39;10.10;;;5.50;;
5869;SDS011;2961;47.702;9.410;2024-01-25T10:13:06;9.07;;;5.17;;
5869;SDS011;2961;47.702;9.410;2024-01-25T10:15:38;17.03;;;5.87;;
5869;SDS011;2961;47.702;9.410;2024-01-25T10:18:06;6.77;;;4.37;;
5869;SDS011;2961;47.702;9.410;2024-01-25T10:20:38;7.13;;;4.03;;
5869;SDS011;2961;47.702;9.410;2024-01-25T10:23:06;12.40;;;5.80;;
5869;SDS011;2961;47.702;9.410;2024-01-25T10:25:34;5.43;;;4.07;;
5869;SDS011;2961;47.702;9.410;2024-01-25T10:28:01;5.10;;;3.10;;
5869;SDS011;2961;47.702;9.410;2024-01-25T10:30:28;7.47;;;3.10;;
5869;SDS011;2961;47.702;9.410;2024-01-25T10:32:58;6.47;;;3.20;;
5869;SDS011;2961;47.702;9.410;2024-01-25T10:35:25;6.60;;;2.87;;
5869;SDS011;2961;47.702;9.410;2024-01-25T10:37:52;5.80;;;2.43;;
5869;SDS011;2961;47.702;9.410;2024-01-25T10:40:21;4.93;;;2.40;;
5869;SDS011;2961;47.702;9.410;2024-01-25T10:42:48;3.70;;;2.10;;
5869;SDS011;2961;47.702;9.410;2024-01-25T10:45:16;2.80;;;2.20;;
5869;SDS011;2961;47.702;9.410;2024-01-25T10:47:43;2.73;;;2.47;;
5869;SDS011;2961;47.702;9.410;2024-01-25T10:50:14;4.40;;;2.00;;
5869;SDS011;2961;47.702;9.410;2024-01-25T10:52:41;4.00;;;2.40;;
5869;SDS011;2961;47.702;9.410;2024-01-25T10:55:09;2.40;;;1.97;;
5869;SDS011;2961;47.702;9.410;2024-01-25T10:57:39;2.93;;;2.30;;
5869;SDS011;2961;47.702;9.410;2024-01-25T11:00:09;1.83;;;1.73;;
5869;SDS011;2961;47.702;9.410;2024-01-25T11:02:38;3.57;;;2.17;;
5869;SDS011;2961;47.702;9.410;2024-01-25T11:05:06;3.27;;;2.10;;
5869;SDS011;2961;47.702;9.410;2024-01-25T11:07:42;2.00;;;1.67;;
5869;SDS011;2961;47.702;9.410;2024-01-25T11:10:11;1.60;;;1.50;;
5869;SDS011;2961;47.702;9.410;2024-01-25T11:12:47;1.67;;;1.60;;
5869;SDS011;2961;47.702;9.410;2024-01-25T11:15:17;3.07;;;1.50;;
5869;SDS011;2961;47.702;9.410;2024-01-25T11:17:53;2.30;;;1.30;;
5869;SDS011;2961;47.702;9.410;2024-01-25T11:20:21;3.20;;;1.63;;
5869;SDS011;2961;47.702;9.410;2024-01-25T11:22:48;3.07;;;2.17;;
5869;SDS011;2961;47.702;9.410;2024-01-25T11:25:20;4.20;;;2.10;;
5869;SDS011;2961;47.702;9.410;2024-01-25T11:27:49;4.40;;;2.10;;
5869;SDS011;2961;47.702;9.410;2024-01-25T11:30:17;2.57;;;1.80;;
5869;SDS011;2961;47.702;9.410;2024-01-25T11:32:45;3.67;;;2.47;;
5869;SDS011;2961;47.702;9.410;2024-01-25T11:35:13;2.33;;;2.20;;
5869;SDS011;2961;47.702;9.410;2024-01-25T11:37:41;6.03;;;2.00;;
5869;SDS011;2961;47.702;9.410;2024-01-25T11:40:09;2.47;;;1.37;;
5869;SDS011;2961;47.702;9.410;2024-01-25T11:42:37;3.97;;;1.67;;
5869;SDS011;2961;47.702;9.410;2024-01-25T11:45:06;4.20;;;2.00;;
5869;SDS011;2961;47.702;9.410;2024-01-25T11:47:36;2.80;;;1.97;;
5869;SDS011;2961;47.702;9.410;2024-01-25T11:50:03;2.20;;;1.43;;
5869;SDS011;2961;47.702;9.410;2024-01-25T11:52:32;5.77;;;2.30;;
5869;SDS011;2961;47.702;9.410;2024-01-25T11:54:59;6.97;;;3.60;;
5869;SDS011;2961;47.702;9.410;2024-01-25T11:57:25;6.50;;;1.97;;
5869;SDS011;2961;47.702;9.410;2024-01-25T11:59:53;5.27;;;2.13;;
5869;SDS011;2961;47.702;9.410;2024-01-25T12:02:22;4.83;;;2.10;;
5869;SDS011;2961;47.702;9.410;2024-01-25T12:04:49;3.27;;;2.40;;
5869;SDS011;2961;47.702;9.410;2024-01-25T12:07:19;3.77;;;2.27;;
5869;SDS011;2961;47.702;9.410;2024-01-25T12:09:56;10.17;;;2.50;;
5869;SDS011;2961;47.702;9.410;2024-01-25T12:12:23;5.80;;;2.10;;
5869;SDS011;2961;47.702;9.410;2024-01-25T12:14:50;3.77;;;1.67;;
5869;SDS011;2961;47.702;9.410;2024-01-25T12:17:18;1.83;;;1.00;;
5869;SDS011;2961;47.702;9.410;2024-01-25T12:19:46;1.77;;;1.67;;
5869;SDS011;2961;47.702;9.410;2024-01-25T12:22:19;5.40;;;3.00;;
5869;SDS011;2961;47.702;9.410;2024-01-25T12:24:46;3.80;;;2.92;;
5869;SDS011;2961;47.702;9.410;2024-01-25T12:27:14;2.90;;;1.83;;
5869;SDS011;2961;47.702;9.410;2024-01-25T12:29:41;5.70;;;1.73;;
5869;SDS011;2961;47.702;9.410;2024-01-25T12:32:09;3.43;;;2.40;;
5869;SDS011;2961;47.702;9.410;2024-01-25T12:34:36;6.73;;;3.53;;
5869;SDS011;2961;47.702;9.410;2024-01-25T12:37:05;4.67;;;2.03;;
5869;SDS011;2961;47.702;9.410;2024-01-25T12:39:33;2.60;;;1.67;;
5869;SDS011;2961;47.702;9.410;2024-01-25T12:42:00;1.83;;;1.50;;
5869;SDS011;2961;47.702;9.410;2024-01-25T12:44:27;6.23;;;3.70;;
5869;SDS011;2961;47.702;9.410;2024-01-25T12:46:53;7.43;;;3.23;;
5869;SDS011;2961;47.702;9.410;2024-01-25T12:49:20;2.80;;;2.50;;
5869;SDS011;2961;47.702;9.410;2024-01-25T12:51:48;2.40;;;1.00;;
5869;SDS011;2961;47.702;9.410;2024-01-25T12:54:16;23.17;;;10.30;;
5869;SDS011;2961;47.702;9.410;2024-01-25T12:56:43;6.67;;;4.17;;
5869;SDS011;2961;47.702;9.410;2024-01-25T12:59:09;4.53;;;2.80;;
5869;SDS011;2961;47.702;9.410;2024-01-25T13:01:36;0.97;;;0.97;;
5869;SDS011;2961;47.702;9.410;2024-01-25T13:04:03;2.93;;;2.27;;
5869;SDS011;2961;47.702;9.410;2024-01-25T13:06:31;1.33;;;1.20;;
5869;SDS011;2961;47.702;9.410;2024-01-25T13:08:57;1.70;;;1.27;;
5869;SDS011;2961;47.702;9.410;2024-01-25T13:11:25;1.03;;;1.00;;
5869;SDS011;2961;47.702;9.410;2024-01-25T13:13:52;3.13;;;1.70;;
5869;SDS011;2961;47.702;9.410;2024-01-25T13:16:19;3.60;;;1.50;;
5869;SDS011;2961;47.702;9.410;2024-01-25T13:18:46;2.83;;;1.10;;
5869;SDS011;2961;47.702;9.410;2024-01-25T13:21:12;16.70;;;8.60;;
5869;SDS011;2961;47.702;9.410;2024-01-25T13:23:39;1.27;;;1.27;;
5869;SDS011;2961;47.702;9.410;2024-01-25T13:26:06;1.53;;;0.77;;
5869;SDS011;2961;47.702;9.410;2024-01-25T13:28:34;1.80;;;1.43;;
5869;SDS011;2961;47.702;9.410;2024-01-25T13:31:01;1.37;;;0.90;;
5869;SDS011;2961;47.702;9.410;2024-01-25T13:33:28;2.53;;;1.97;;
5869;SDS011;2961;47.702;9.410;2024-01-25T13:35:54;5.10;;;2.03;;
5869;SDS011;2961;47.702;9.410;2024-01-25T13:38:21;0.70;;;0.70;;
5869;SDS011;2961;47.702;9.410;2024-01-25T13:41:02;8.13;;;0.87;;
5869;SDS011;2961;47.702;9.410;2024-01-25T13:43:28;0.77;;;0.77;;
5869;SDS011;2961;47.702;9.410;2024-01-25T13:45:57;0.50;;;0.50;;
5869;SDS011;2961;47.702;9.410;2024-01-25T13:48:23;0.80;;;0.60;;
5869;SDS011;2961;47.702;9.410;2024-01-25T13:50:50;1.33;;;1.13;;
5869;SDS011;2961;47.702;9.410;2024-01-25T13:53:17;2.60;;;1.20;;
5869;SDS011;2961;47.702;9.410;2024-01-25T13:55:44;3.70;;;0.70;;
5869;SDS011;2961;47.702;9.410;2024-01-25T13:58:11;1.37;;;0.80;;
5869;SDS011;2961;47.702;9.410;2024-01-25T14:00:37;2.50;;;0.80;;
5869;SDS011;2961;47.702;9.410;2024-01-25T14:03:05;1.20;;;1.20;;
5869;SDS011;2961;47.702;9.410;2024-01-25T14:05:32;1.33;;;0.93;;
5869;SDS011;2961;47.702;9.410;2024-01-25T14:07:59;1.00;;;1.00;;
5869;SDS011;2961;47.702;9.410;2024-01-25T14:10:26;1.17;;;1.07;;
5869;SDS011;2961;47.702;9.410;2024-01-25T14:12:53;1.17;;;1.07;;
5869;SDS011;2961;47.702;9.410;2024-01-25T14:15:21;0.80;;;0.60;;
5869;SDS011;2961;47.702;9.410;2024-01-25T14:17:47;1.57;;;1.10;;
5869;SDS011;2961;47.702;9.410;2024-01-25T14:20:16;1.67;;;1.20;;
5869;SDS011;2961;47.702;9.410;2024-01-25T14:22:43;5.47;;;1.60;;
5869;SDS011;2961;47.702;9.410;2024-01-25T14:25:09;1.43;;;0.90;;
5869;SDS011;2961;47.702;9.410;2024-01-25T14:27:37;2.73;;;1.30;;
5869;SDS011;2961;47.702;9.410;2024-01-25T14:30:04;1.30;;;1.13;;
5869;SDS011;2961;47.702;9.410;2024-01-25T14:32:32;2.60;;;1.50;;
5869;SDS011;2961;47.702;9.410;2024-01-25T14:34:59;1.50;;;1.40;;
5869;SDS011;2961;47.702;9.410;2024-01-25T14:37:27;2.83;;;1.57;;
5869;SDS011;2961;47.702;9.410;2024-01-25T14:39:55;3.30;;;2.13;;
5869;SDS011;2961;47.702;9.410;2024-01-25T14:42:22;2.90;;;1.40;;
5869;SDS011;2961;47.702;9.410;2024-01-25T14:44:48;1.70;;;1.60;;
5869;SDS011;2961;47.702;9.410;2024-01-25T14:47:15;2.00;;;1.80;;
5869;SDS011;2961;47.702;9.410;2024-01-25T14:49:45;3.60;;;1.70;;
5869;SDS011;2961;47.702;9.410;2024-01-25T14:52:12;1.70;;;1.37;;
5869;SDS011;2961;47.702;9.410;2024-01-25T14:54:40;2.55;;;1.80;;
5869;SDS011;2961;47.702;9.410;2024-01-25T14:57:07;1.53;;;1.50;;
5869;SDS011;2961;47.702;9.410;2024-01-25T14:59:34;1.53;;;1.43;;
5869;SDS011;2961;47.702;9.410;2024-01-25T15:02:01;3.50;;;1.60;;
5869;SDS011;2961;47.702;9.410;2024-01-25T15:04:28;2.07;;;1.50;;
5869;SDS011;2961;47.702;9.410;2024-01-25T15:06:55;1.80;;;1.70;;
5869;SDS011;2961;47.702;9.410;2024-01-25T15:09:22;2.50;;;1.90;;
5869;SDS011;2961;47.702;9.410;2024-01-25T15:11:50;1.60;;;1.50;;
5869;SDS011;2961;47.702;9.410;2024-01-25T15:14:17;2.53;;;2.33;;
5869;SDS011;2961;47.702;9.410;2024-01-25T15:16:44;2.33;;;2.13;;